sensor_id;sensor_type;location;lat;lon;timestamp;temperature;humidity
10336;DHT22;5213;53.548;9.930;2023-07-16T00:01:58;18.60;99.90
10336;DHT22;5213;53.548;9.930;2023-07-16T00:04:23;18.60;99.90
10336;DHT22;5213;53.548;9.930;2023-07-16T00:06:49;18.50;99.90
10336;DHT22;5213;53.548;9.930;2023-07-16T00:09:15;18.40;99.90
10336;DHT22;5213;53.548;9.930;2023-07-16T00:11:41;18.40;99.90
10336;DHT22;5213;53.548;9.930;2023-07-16T00:14:07;18.30;99.90
10336;DHT22;5213;53.548;9.930;2023-07-16T00:16:33;18.30;99.90
10336;DHT22;5213;53.548;9.930;2023-07-16T00:18:58;18.30;99.90
10336;DHT22;5213;53.548;9.930;2023-07-16T00:21:24;18.30;99.90
10336;DHT22;5213;53.548;9.930;2023-07-16T00:23:50;18.20;99.90
10336;DHT22;5213;53.548;9.930;2023-07-16T00:26:16;18.30;99.90
10336;DHT22;5213;53.548;9.930;2023-07-16T00:28:42;18.30;99.90
10336;DHT22;5213;53.548;9.930;2023-07-16T00:31:07;18.20;99.90
10336;DHT22;5213;53.548;9.930;2023-07-16T00:33:33;18.30;99.90
10336;DHT22;5213;53.548;9.930;2023-07-16T00:35:58;18.30;99.90
10336;DHT22;5213;53.548;9.930;2023-07-16T00:38:24;18.30;99.90
10336;DHT22;5213;53.548;9.930;2023-07-16T00:40:50;18.30;99.90
10336;DHT22;5213;53.548;9.930;2023-07-16T00:43:15;18.30;99.90
10336;DHT22;5213;53.548;9.930;2023-07-16T00:45:42;18.30;99.90
10336;DHT22;5213;53.548;9.930;2023-07-16T00:48:10;18.30;99.90
10336;DHT22;5213;53.548;9.930;2023-07-16T00:50:36;18.30;99.90
10336;DHT22;5213;53.548;9.930;2023-07-16T00:53:05;18.30;99.90
10336;DHT22;5213;53.548;9.930;2023-07-16T00:55:32;18.30;99.90
10336;DHT22;5213;53.548;9.930;2023-07-16T00:58:02;18.30;99.90
10336;DHT22;5213;53.548;9.930;2023-07-16T01:00:35;18.30;1.00
10336;DHT22;5213;53.548;9.930;2023-07-16T01:03:02;18.30;1.00
10336;DHT22;5213;53.548;9.930;2023-07-16T01:05:34;18.30;1.00
10336;DHT22;5213;53.548;9.930;2023-07-16T01:08:04;18.40;1.00
10336;DHT22;5213;53.548;9.930;2023-07-16T01:10:31;18.40;1.00
10336;DHT22;5213;53.548;9.930;2023-07-16T01:12:57;18.40;1.00
10336;DHT22;5213;53.548;9.930;2023-07-16T01:15:24;18.50;1.00
10336;DHT22;5213;53.548;9.930;2023-07-16T01:17:49;18.50;1.00
10336;DHT22;5213;53.548;9.930;2023-07-16T01:20:15;18.60;1.00
10336;DHT22;5213;53.548;9.930;2023-07-16T01:31:23;18.50;1.00
10336;DHT22;5213;53.548;9.930;2023-07-16T01:33:51;18.60;1.00
10336;DHT22;5213;53.548;9.930;2023-07-16T01:36:18;18.50;1.00
10336;DHT22;5213;53.548;9.930;2023-07-16T01:38:45;18.60;1.00
10336;DHT22;5213;53.548;9.930;2023-07-16T01:41:11;18.60;1.00
10336;DHT22;5213;53.548;9.930;2023-07-16T01:43:36;18.60;1.00
10336;DHT22;5213;53.548;9.930;2023-07-16T01:46:02;18.60;1.00
10336;DHT22;5213;53.548;9.930;2023-07-16T01:48:37;18.70;1.00
10336;DHT22;5213;53.548;9.930;2023-07-16T01:51:04;18.70;1.00
10336;DHT22;5213;53.548;9.930;2023-07-16T01:53:30;18.70;1.00
10336;DHT22;5213;53.548;9.930;2023-07-16T01:55:57;18.70;1.00
10336;DHT22;5213;53.548;9.930;2023-07-16T01:58:23;18.70;1.00
10336;DHT22;5213;53.548;9.930;2023-07-16T02:00:50;18.70;1.00
10336;DHT22;5213;53.548;9.930;2023-07-16T02:03:15;18.70;1.00
10336;DHT22;5213;53.548;9.930;2023-07-16T02:05:41;18.70;1.00
10336;DHT22;5213;53.548;9.930;2023-07-16T02:08:06;18.60;1.00
10336;DHT22;5213;53.548;9.930;2023-07-16T02:10:32;18.60;1.00
10336;DHT22;5213;53.548;9.930;2023-07-16T02:12:58;18.50;1.00
10336;DHT22;5213;53.548;9.930;2023-07-16T02:15:23;18.50;1.00
10336;DHT22;5213;53.548;9.930;2023-07-16T02:17:49;18.50;1.00
10336;DHT22;5213;53.548;9.930;2023-07-16T02:20:14;18.50;1.00
10336;DHT22;5213;53.548;9.930;2023-07-16T02:22:40;18.40;1.00
10336;DHT22;5213;53.548;9.930;2023-07-16T02:25:06;18.40;1.00
10336;DHT22;5213;53.548;9.930;2023-07-16T02:27:32;18.40;1.00
10336;DHT22;5213;53.548;9.930;2023-07-16T02:29:57;18.40;1.00
10336;DHT22;5213;53.548;9.930;2023-07-16T02:32:23;18.40;1.00
10336;DHT22;5213;53.548;9.930;2023-07-16T02:34:49;18.40;1.00
10336;DHT22;5213;53.548;9.930;2023-07-16T02:37:15;18.40;1.00
10336;DHT22;5213;53.548;9.930;2023-07-16T02:39:42;18.40;1.00
10336;DHT22;5213;53.548;9.930;2023-07-16T02:42:08;18.40;1.00
10336;DHT22;5213;53.548;9.930;2023-07-16T02:44:34;18.20;1.00
10336;DHT22;5213;53.548;9.930;2023-07-16T02:47:03;18.20;1.00
10336;DHT22;5213;53.548;9.930;2023-07-16T02:49:29;18.10;1.00
10336;DHT22;5213;53.548;9.930;2023-07-16T02:51:55;18.20;1.00
10336;DHT22;5213;53.548;9.930;2023-07-16T02:54:20;18.20;1.00
10336;DHT22;5213;53.548;9.930;2023-07-16T02:56:47;18.20;1.00
10336;DHT22;5213;53.548;9.930;2023-07-16T02:59:12;18.20;1.00
10336;DHT22;5213;53.548;9.930;2023-07-16T03:01:38;18.30;1.00
10336;DHT22;5213;53.548;9.930;2023-07-16T03:04:04;18.30;1.00
10336;DHT22;5213;53.548;9.930;2023-07-16T03:06:29;18.30;1.00
10336;DHT22;5213;53.548;9.930;2023-07-16T03:08:55;18.30;1.00
10336;DHT22;5213;53.548;9.930;2023-07-16T03:11:20;18.20;1.00
10336;DHT22;5213;53.548;9.930;2023-07-16T03:13:46;18.20;1.00
10336;DHT22;5213;53.548;9.930;2023-07-16T03:16:12;18.20;1.00
10336;DHT22;5213;53.548;9.930;2023-07-16T03:18:37;18.10;1.00
10336;DHT22;5213;53.548;9.930;2023-07-16T03:21:03;18.10;1.00
10336;DHT22;5213;53.548;9.930;2023-07-16T03:23:29;18.10;1.00
10336;DHT22;5213;53.548;9.930;2023-07-16T03:25:54;18.10;1.00
10336;DHT22;5213;53.548;9.930;2023-07-16T03:28:20;18.10;1.00
10336;DHT22;5213;53.548;9.930;2023-07-16T03:30:49;18.20;1.00
10336;DHT22;5213;53.548;9.930;2023-07-16T03:33:15;18.20;1.00
10336;DHT22;5213;53.548;9.930;2023-07-16T03:35:45;18.20;1.00
10336;DHT22;5213;53.548;9.930;2023-07-16T03:38:12;18.20;1.00
10336;DHT22;5213;53.548;9.930;2023-07-16T03:40:38;18.10;1.00
10336;DHT22;5213;53.548;9.930;2023-07-16T03:43:04;18.10;1.00
10336;DHT22;5213;53.548;9.930;2023-07-16T03:45:30;18.00;1.00
10336;DHT22;5213;53.548;9.930;2023-07-16T03:47:55;17.90;1.00
10336;DHT22;5213;53.548;9.930;2023-07-16T03:50:21;17.80;1.00
10336;DHT22;5213;53.548;9.930;2023-07-16T03:52:47;17.70;1.00
10336;DHT22;5213;53.548;9.930;2023-07-16T03:55:13;17.70;1.00
10336;DHT22;5213;53.548;9.930;2023-07-16T03:57:38;17.60;1.00
10336;DHT22;5213;53.548;9.930;2023-07-16T04:00:04;17.60;1.00
10336;DHT22;5213;53.548;9.930;2023-07-16T04:02:35;17.70;1.00
10336;DHT22;5213;53.548;9.930;2023-07-16T04:05:01;17.80;1.00
10336;DHT22;5213;53.548;9.930;2023-07-16T04:07:27;17.90;1.00
10336;DHT22;5213;53.548;9.930;2023-07-16T04:09:52;18.00;1.00
10336;DHT22;5213;53.548;9.930;2023-07-16T04:12:18;17.90;1.00
10336;DHT22;5213;53.548;9.930;2023-07-16T04:14:44;18.00;1.00
10336;DHT22;5213;53.548;9.930;2023-07-16T04:17:09;18.00;1.00
10336;DHT22;5213;53.548;9.930;2023-07-16T04:19:35;18.00;1.00
10336;DHT22;5213;53.548;9.930;2023-07-16T04:22:01;18.10;1.00
10336;DHT22;5213;53.548;9.930;2023-07-16T04:24:27;18.20;1.00
10336;DHT22;5213;53.548;9.930;2023-07-16T04:26:53;18.50;1.00
10336;DHT22;5213;53.548;9.930;2023-07-16T04:29:19;18.70;1.00
10336;DHT22;5213;53.548;9.930;2023-07-16T04:31:45;18.90;1.00
10336;DHT22;5213;53.548;9.930;2023-07-16T04:34:10;19.40;1.00
10336;DHT22;5213;53.548;9.930;2023-07-16T04:36:36;20.00;1.00
10336;DHT22;5213;53.548;9.930;2023-07-16T04:39:02;20.60;1.00
10336;DHT22;5213;53.548;9.930;2023-07-16T04:41:28;20.90;99.90
10336;DHT22;5213;53.548;9.930;2023-07-16T04:43:53;20.60;99.90
10336;DHT22;5213;53.548;9.930;2023-07-16T04:46:19;20.30;99.90
10336;DHT22;5213;53.548;9.930;2023-07-16T04:48:44;20.20;99.90
10336;DHT22;5213;53.548;9.930;2023-07-16T04:51:10;20.20;99.90
10336;DHT22;5213;53.548;9.930;2023-07-16T04:53:36;20.30;99.90
10336;DHT22;5213;53.548;9.930;2023-07-16T04:56:01;20.50;99.90
10336;DHT22;5213;53.548;9.930;2023-07-16T04:58:27;20.50;99.90
10336;DHT22;5213;53.548;9.930;2023-07-16T05:00:52;21.00;99.90
10336;DHT22;5213;53.548;9.930;2023-07-16T05:03:18;21.30;99.90
10336;DHT22;5213;53.548;9.930;2023-07-16T05:05:44;21.50;99.90
10336;DHT22;5213;53.548;9.930;2023-07-16T05:08:09;21.80;99.90
10336;DHT22;5213;53.548;9.930;2023-07-16T05:10:35;21.80;99.90
10336;DHT22;5213;53.548;9.930;2023-07-16T05:13:01;22.10;99.90
10336;DHT22;5213;53.548;9.930;2023-07-16T05:15:29;22.20;99.90
10336;DHT22;5213;53.548;9.930;2023-07-16T05:17:54;22.30;99.90
10336;DHT22;5213;53.548;9.930;2023-07-16T05:20:23;22.30;99.90
10336;DHT22;5213;53.548;9.930;2023-07-16T05:22:48;22.10;99.90
10336;DHT22;5213;53.548;9.930;2023-07-16T05:25:14;21.90;99.90
10336;DHT22;5213;53.548;9.930;2023-07-16T05:27:39;21.60;99.90
10336;DHT22;5213;53.548;9.930;2023-07-16T05:30:05;21.50;99.90
10336;DHT22;5213;53.548;9.930;2023-07-16T05:32:31;21.30;99.90
10336;DHT22;5213;53.548;9.930;2023-07-16T05:34:57;21.10;99.90
10336;DHT22;5213;53.548;9.930;2023-07-16T05:37:22;21.00;99.90
10336;DHT22;5213;53.548;9.930;2023-07-16T05:39:48;21.00;99.90
10336;DHT22;5213;53.548;9.930;2023-07-16T05:42:13;20.90;99.90
10336;DHT22;5213;53.548;9.930;2023-07-16T05:44:39;20.80;99.90
10336;DHT22;5213;53.548;9.930;2023-07-16T05:47:05;20.80;99.90
10336;DHT22;5213;53.548;9.930;2023-07-16T05:49:31;20.70;99.90
10336;DHT22;5213;53.548;9.930;2023-07-16T05:51:57;20.60;99.90
10336;DHT22;5213;53.548;9.930;2023-07-16T05:54:23;20.60;99.90
10336;DHT22;5213;53.548;9.930;2023-07-16T05:56:48;20.40;99.90
10336;DHT22;5213;53.548;9.930;2023-07-16T05:59:14;20.40;99.90
10336;DHT22;5213;53.548;9.930;2023-07-16T06:01:39;20.40;99.90
10336;DHT22;5213;53.548;9.930;2023-07-16T06:04:05;20.30;99.90
10336;DHT22;5213;53.548;9.930;2023-07-16T06:06:31;20.30;99.90
10336;DHT22;5213;53.548;9.930;2023-07-16T06:08:56;20.40;99.90
10336;DHT22;5213;53.548;9.930;2023-07-16T06:11:22;20.40;99.90
10336;DHT22;5213;53.548;9.930;2023-07-16T06:13:47;20.30;99.90
10336;DHT22;5213;53.548;9.930;2023-07-16T06:16:13;20.40;99.90
10336;DHT22;5213;53.548;9.930;2023-07-16T06:18:38;20.40;99.90
10336;DHT22;5213;53.548;9.930;2023-07-16T06:21:04;20.40;99.90
10336;DHT22;5213;53.548;9.930;2023-07-16T06:23:30;20.40;99.90
10336;DHT22;5213;53.548;9.930;2023-07-16T06:25:56;20.60;99.90
10336;DHT22;5213;53.548;9.930;2023-07-16T06:28:22;20.70;99.90
10336;DHT22;5213;53.548;9.930;2023-07-16T06:30:47;20.80;99.90
10336;DHT22;5213;53.548;9.930;2023-07-16T06:33:13;20.90;99.90
10336;DHT22;5213;53.548;9.930;2023-07-16T06:35:38;21.00;99.90
10336;DHT22;5213;53.548;9.930;2023-07-16T06:38:04;20.90;99.90
10336;DHT22;5213;53.548;9.930;2023-07-16T06:40:30;21.00;99.90
10336;DHT22;5213;53.548;9.930;2023-07-16T06:42:56;21.10;99.90
10336;DHT22;5213;53.548;9.930;2023-07-16T06:45:22;21.10;99.90
10336;DHT22;5213;53.548;9.930;2023-07-16T06:47:48;21.10;99.90
10336;DHT22;5213;53.548;9.930;2023-07-16T06:50:14;21.10;99.90
10336;DHT22;5213;53.548;9.930;2023-07-16T06:52:39;21.20;99.90
10336;DHT22;5213;53.548;9.930;2023-07-16T06:55:05;21.20;99.90
10336;DHT22;5213;53.548;9.930;2023-07-16T06:57:31;21.20;99.90
10336;DHT22;5213;53.548;9.930;2023-07-16T06:59:57;21.10;99.90
10336;DHT22;5213;53.548;9.930;2023-07-16T07:02:23;21.20;99.90
10336;DHT22;5213;53.548;9.930;2023-07-16T07:04:50;21.30;99.90
10336;DHT22;5213;53.548;9.930;2023-07-16T07:07:16;21.40;99.90
10336;DHT22;5213;53.548;9.930;2023-07-16T07:09:42;21.50;99.90
10336;DHT22;5213;53.548;9.930;2023-07-16T07:12:08;21.50;99.90
10336;DHT22;5213;53.548;9.930;2023-07-16T07:14:33;21.40;99.90
10336;DHT22;5213;53.548;9.930;2023-07-16T07:16:59;21.60;99.90
10336;DHT22;5213;53.548;9.930;2023-07-16T07:19:25;21.70;99.90
10336;DHT22;5213;53.548;9.930;2023-07-16T07:21:51;21.60;99.90
10336;DHT22;5213;53.548;9.930;2023-07-16T07:24:16;21.50;99.90
10336;DHT22;5213;53.548;9.930;2023-07-16T07:26:42;21.60;99.90
10336;DHT22;5213;53.548;9.930;2023-07-16T07:29:08;21.80;99.90
10336;DHT22;5213;53.548;9.930;2023-07-16T07:31:33;21.90;99.90
10336;DHT22;5213;53.548;9.930;2023-07-16T07:33:59;22.10;99.90
10336;DHT22;5213;53.548;9.930;2023-07-16T07:36:25;22.20;99.90
10336;DHT22;5213;53.548;9.930;2023-07-16T07:38:50;22.40;99.90
10336;DHT22;5213;53.548;9.930;2023-07-16T07:41:16;22.60;99.90
10336;DHT22;5213;53.548;9.930;2023-07-16T07:43:43;22.80;99.90
10336;DHT22;5213;53.548;9.930;2023-07-16T07:46:08;22.80;99.90
10336;DHT22;5213;53.548;9.930;2023-07-16T07:48:35;22.90;99.90
10336;DHT22;5213;53.548;9.930;2023-07-16T07:51:01;22.80;99.90
10336;DHT22;5213;53.548;9.930;2023-07-16T07:53:26;22.70;99.90
10336;DHT22;5213;53.548;9.930;2023-07-16T07:55:52;22.70;99.90
10336;DHT22;5213;53.548;9.930;2023-07-16T07:58:17;22.70;99.90
10336;DHT22;5213;53.548;9.930;2023-07-16T08:00:43;22.40;99.90
10336;DHT22;5213;53.548;9.930;2023-07-16T08:03:08;22.20;99.90
10336;DHT22;5213;53.548;9.930;2023-07-16T08:05:34;22.20;99.90
10336;DHT22;5213;53.548;9.930;2023-07-16T08:08:00;22.30;99.90
10336;DHT22;5213;53.548;9.930;2023-07-16T08:10:25;22.40;99.90
10336;DHT22;5213;53.548;9.930;2023-07-16T08:12:51;22.50;99.90
10336;DHT22;5213;53.548;9.930;2023-07-16T08:15:17;22.60;99.90
10336;DHT22;5213;53.548;9.930;2023-07-16T08:17:44;22.60;99.90
10336;DHT22;5213;53.548;9.930;2023-07-16T08:20:11;22.40;99.90
10336;DHT22;5213;53.548;9.930;2023-07-16T08:22:37;22.60;99.90
10336;DHT22;5213;53.548;9.930;2023-07-16T08:25:03;22.90;99.90
10336;DHT22;5213;53.548;9.930;2023-07-16T08:27:30;22.70;99.90
10336;DHT22;5213;53.548;9.930;2023-07-16T08:29:56;23.00;99.90
10336;DHT22;5213;53.548;9.930;2023-07-16T08:32:22;23.40;99.90
10336;DHT22;5213;53.548;9.930;2023-07-16T08:34:47;23.40;99.90
10336;DHT22;5213;53.548;9.930;2023-07-16T08:37:13;23.80;99.90
10336;DHT22;5213;53.548;9.930;2023-07-16T08:39:39;23.80;99.90
10336;DHT22;5213;53.548;9.930;2023-07-16T08:42:05;23.60;99.90
10336;DHT22;5213;53.548;9.930;2023-07-16T08:44:31;23.50;99.90
10336;DHT22;5213;53.548;9.930;2023-07-16T08:46:57;23.80;99.90
10336;DHT22;5213;53.548;9.930;2023-07-16T08:49:23;23.70;99.90
10336;DHT22;5213;53.548;9.930;2023-07-16T08:51:51;23.70;99.90
10336;DHT22;5213;53.548;9.930;2023-07-16T08:54:19;24.00;99.90
10336;DHT22;5213;53.548;9.930;2023-07-16T08:56:46;24.00;99.90
10336;DHT22;5213;53.548;9.930;2023-07-16T08:59:14;23.70;99.90
10336;DHT22;5213;53.548;9.930;2023-07-16T09:01:40;23.40;99.90
10336;DHT22;5213;53.548;9.930;2023-07-16T09:04:06;23.30;99.80
10336;DHT22;5213;53.548;9.930;2023-07-16T09:06:32;23.30;98.40
10336;DHT22;5213;53.548;9.930;2023-07-16T09:08:58;23.10;99.60
10336;DHT22;5213;53.548;9.930;2023-07-16T09:11:23;23.10;99.90
10336;DHT22;5213;53.548;9.930;2023-07-16T09:13:49;23.30;98.70
10336;DHT22;5213;53.548;9.930;2023-07-16T09:16:18;23.40;96.30
10336;DHT22;5213;53.548;9.930;2023-07-16T09:18:44;23.50;96.10
10336;DHT22;5213;53.548;9.930;2023-07-16T09:21:10;23.70;95.20
10336;DHT22;5213;53.548;9.930;2023-07-16T09:23:36;23.60;94.00
10336;DHT22;5213;53.548;9.930;2023-07-16T09:26:02;23.40;93.90
10336;DHT22;5213;53.548;9.930;2023-07-16T09:28:31;23.20;95.40
10336;DHT22;5213;53.548;9.930;2023-07-16T09:31:04;22.90;97.50
10336;DHT22;5213;53.548;9.930;2023-07-16T09:33:31;22.80;98.20
10336;DHT22;5213;53.548;9.930;2023-07-16T09:35:57;23.00;96.50
10336;DHT22;5213;53.548;9.930;2023-07-16T09:38:23;23.40;94.70
10336;DHT22;5213;53.548;9.930;2023-07-16T09:40:52;23.90;92.90
10336;DHT22;5213;53.548;9.930;2023-07-16T09:43:18;24.10;90.60
10336;DHT22;5213;53.548;9.930;2023-07-16T09:45:43;24.00;88.30
10336;DHT22;5213;53.548;9.930;2023-07-16T09:48:09;24.10;86.90
10336;DHT22;5213;53.548;9.930;2023-07-16T09:50:35;24.20;82.70
10336;DHT22;5213;53.548;9.930;2023-07-16T09:53:03;23.90;81.90
10336;DHT22;5213;53.548;9.930;2023-07-16T09:55:32;23.80;81.70
10336;DHT22;5213;53.548;9.930;2023-07-16T09:58:01;23.60;83.50
10336;DHT22;5213;53.548;9.930;2023-07-16T10:00:27;23.50;85.60
10336;DHT22;5213;53.548;9.930;2023-07-16T10:02:54;23.50;86.70
10336;DHT22;5213;53.548;9.930;2023-07-16T10:05:27;23.20;85.70
10336;DHT22;5213;53.548;9.930;2023-07-16T10:07:55;23.00;95.40
10336;DHT22;5213;53.548;9.930;2023-07-16T10:10:47;23.40;85.90
10336;DHT22;5213;53.548;9.930;2023-07-16T10:13:14;23.30;84.00
10336;DHT22;5213;53.548;9.930;2023-07-16T10:15:59;23.10;87.90
10336;DHT22;5213;53.548;9.930;2023-07-16T10:18:27;23.50;83.70
10336;DHT22;5213;53.548;9.930;2023-07-16T10:23:39;24.00;76.80
10336;DHT22;5213;53.548;9.930;2023-07-16T10:26:06;24.10;75.80
10336;DHT22;5213;53.548;9.930;2023-07-16T10:28:33;24.30;70.00
10336;DHT22;5213;53.548;9.930;2023-07-16T10:30:59;24.40;72.20
10336;DHT22;5213;53.548;9.930;2023-07-16T10:33:25;24.50;70.30
10336;DHT22;5213;53.548;9.930;2023-07-16T10:35:51;24.40;68.50
10336;DHT22;5213;53.548;9.930;2023-07-16T10:38:16;24.40;67.20
10336;DHT22;5213;53.548;9.930;2023-07-16T10:40:45;24.40;66.10
10336;DHT22;5213;53.548;9.930;2023-07-16T10:43:12;24.40;66.40
10336;DHT22;5213;53.548;9.930;2023-07-16T10:45:38;24.40;67.20
10336;DHT22;5213;53.548;9.930;2023-07-16T10:48:04;24.70;61.80
10336;DHT22;5213;53.548;9.930;2023-07-16T10:50:34;24.70;61.30
10336;DHT22;5213;53.548;9.930;2023-07-16T10:53:00;24.50;66.50
10336;DHT22;5213;53.548;9.930;2023-07-16T10:55:28;24.50;90.90
10336;DHT22;5213;53.548;9.930;2023-07-16T10:57:54;24.30;72.80
10336;DHT22;5213;53.548;9.930;2023-07-16T11:00:21;24.20;78.50
10336;DHT22;5213;53.548;9.930;2023-07-16T11:02:50;24.10;81.50
10336;DHT22;5213;53.548;9.930;2023-07-16T11:05:16;24.00;97.10
10336;DHT22;5213;53.548;9.930;2023-07-16T11:07:46;24.30;84.70
10336;DHT22;5213;53.548;9.930;2023-07-16T11:10:15;24.10;90.40
10336;DHT22;5213;53.548;9.930;2023-07-16T11:12:41;24.10;91.60
10336;DHT22;5213;53.548;9.930;2023-07-16T11:15:07;24.20;96.50
10336;DHT22;5213;53.548;9.930;2023-07-16T11:17:33;24.10;99.90
10336;DHT22;5213;53.548;9.930;2023-07-16T11:20:00;24.00;93.50
10336;DHT22;5213;53.548;9.930;2023-07-16T11:22:26;23.70;87.90
10336;DHT22;5213;53.548;9.930;2023-07-16T11:24:53;23.70;80.70
10336;DHT22;5213;53.548;9.930;2023-07-16T11:27:24;23.70;62.40
10336;DHT22;5213;53.548;9.930;2023-07-16T11:29:58;24.00;69.30
10336;DHT22;5213;53.548;9.930;2023-07-16T11:32:29;24.10;68.90
10336;DHT22;5213;53.548;9.930;2023-07-16T11:34:56;24.00;65.40
10336;DHT22;5213;53.548;9.930;2023-07-16T11:37:22;24.10;62.20
10336;DHT22;5213;53.548;9.930;2023-07-16T11:39:49;24.10;82.00
10336;DHT22;5213;53.548;9.930;2023-07-16T11:42:20;24.30;98.20
10336;DHT22;5213;53.548;9.930;2023-07-16T11:44:49;24.30;83.00
10336;DHT22;5213;53.548;9.930;2023-07-16T11:47:15;24.40;74.50
10336;DHT22;5213;53.548;9.930;2023-07-16T11:49:40;24.50;84.00
10336;DHT22;5213;53.548;9.930;2023-07-16T11:52:07;24.30;86.00
10336;DHT22;5213;53.548;9.930;2023-07-16T11:54:33;24.20;81.00
10336;DHT22;5213;53.548;9.930;2023-07-16T11:56:58;23.90;85.60
10336;DHT22;5213;53.548;9.930;2023-07-16T11:59:24;23.60;83.20
10336;DHT22;5213;53.548;9.930;2023-07-16T12:01:49;24.00;90.30
10336;DHT22;5213;53.548;9.930;2023-07-16T12:04:18;24.00;88.10
10336;DHT22;5213;53.548;9.930;2023-07-16T12:06:44;23.70;91.70
10336;DHT22;5213;53.548;9.930;2023-07-16T12:09:09;23.60;94.00
10336;DHT22;5213;53.548;9.930;2023-07-16T12:11:35;23.40;98.80
10336;DHT22;5213;53.548;9.930;2023-07-16T12:14:04;23.30;97.20
10336;DHT22;5213;53.548;9.930;2023-07-16T12:16:29;23.50;98.50
10336;DHT22;5213;53.548;9.930;2023-07-16T12:18:55;23.90;97.80
10336;DHT22;5213;53.548;9.930;2023-07-16T12:21:20;24.20;96.60
10336;DHT22;5213;53.548;9.930;2023-07-16T12:23:46;24.40;99.90
10336;DHT22;5213;53.548;9.930;2023-07-16T12:26:12;24.60;90.70
10336;DHT22;5213;53.548;9.930;2023-07-16T12:28:38;24.70;92.90
10336;DHT22;5213;53.548;9.930;2023-07-16T12:31:03;24.50;96.40
10336;DHT22;5213;53.548;9.930;2023-07-16T12:33:29;24.60;90.00
10336;DHT22;5213;53.548;9.930;2023-07-16T12:35:54;24.60;93.90
10336;DHT22;5213;53.548;9.930;2023-07-16T12:38:20;24.60;93.70
10336;DHT22;5213;53.548;9.930;2023-07-16T12:40:46;24.20;93.30
10336;DHT22;5213;53.548;9.930;2023-07-16T12:43:12;24.40;93.80
10336;DHT22;5213;53.548;9.930;2023-07-16T12:45:37;24.60;91.70
10336;DHT22;5213;53.548;9.930;2023-07-16T12:48:03;24.60;90.80
10336;DHT22;5213;53.548;9.930;2023-07-16T12:50:29;24.50;90.90
10336;DHT22;5213;53.548;9.930;2023-07-16T12:52:55;24.20;95.60
10336;DHT22;5213;53.548;9.930;2023-07-16T12:55:20;24.20;64.90
10336;DHT22;5213;53.548;9.930;2023-07-16T12:57:46;24.20;48.50
10336;DHT22;5213;53.548;9.930;2023-07-16T13:00:12;24.20;50.80
10336;DHT22;5213;53.548;9.930;2023-07-16T13:02:38;24.10;48.90
10336;DHT22;5213;53.548;9.930;2023-07-16T13:05:04;23.90;49.50
10336;DHT22;5213;53.548;9.930;2023-07-16T13:07:30;24.00;52.30
10336;DHT22;5213;53.548;9.930;2023-07-16T13:09:57;24.40;46.40
10336;DHT22;5213;53.548;9.930;2023-07-16T13:12:22;24.60;45.30
10336;DHT22;5213;53.548;9.930;2023-07-16T13:14:48;24.40;44.40
10336;DHT22;5213;53.548;9.930;2023-07-16T13:17:14;24.50;43.90
10336;DHT22;5213;53.548;9.930;2023-07-16T13:19:41;24.30;45.40
10336;DHT22;5213;53.548;9.930;2023-07-16T13:22:07;24.30;47.20
10336;DHT22;5213;53.548;9.930;2023-07-16T13:24:33;24.30;45.20
10336;DHT22;5213;53.548;9.930;2023-07-16T13:26:58;24.40;44.60
10336;DHT22;5213;53.548;9.930;2023-07-16T13:29:24;24.50;43.60
10336;DHT22;5213;53.548;9.930;2023-07-16T13:31:49;24.20;43.70
10336;DHT22;5213;53.548;9.930;2023-07-16T13:34:15;24.10;46.50
10336;DHT22;5213;53.548;9.930;2023-07-16T13:36:41;24.20;48.20
10336;DHT22;5213;53.548;9.930;2023-07-16T13:39:06;24.30;46.10
10336;DHT22;5213;53.548;9.930;2023-07-16T13:41:32;24.30;46.80
10336;DHT22;5213;53.548;9.930;2023-07-16T13:43:58;24.50;48.00
10336;DHT22;5213;53.548;9.930;2023-07-16T13:46:23;24.70;90.20
10336;DHT22;5213;53.548;9.930;2023-07-16T13:48:49;24.70;69.50
10336;DHT22;5213;53.548;9.930;2023-07-16T13:51:15;25.10;87.80
10336;DHT22;5213;53.548;9.930;2023-07-16T13:53:40;25.10;90.90
10336;DHT22;5213;53.548;9.930;2023-07-16T13:56:06;24.60;96.90
10336;DHT22;5213;53.548;9.930;2023-07-16T13:58:33;24.40;54.10
10336;DHT22;5213;53.548;9.930;2023-07-16T14:00:59;24.00;49.60
10336;DHT22;5213;53.548;9.930;2023-07-16T14:03:25;24.10;48.60
10336;DHT22;5213;53.548;9.930;2023-07-16T14:05:51;24.10;49.30
10336;DHT22;5213;53.548;9.930;2023-07-16T14:08:16;24.20;99.90
10336;DHT22;5213;53.548;9.930;2023-07-16T14:10:42;24.00;55.20
10336;DHT22;5213;53.548;9.930;2023-07-16T14:13:08;24.00;51.20
10336;DHT22;5213;53.548;9.930;2023-07-16T14:15:33;24.10;50.50
10336;DHT22;5213;53.548;9.930;2023-07-16T14:17:59;24.00;52.00
10336;DHT22;5213;53.548;9.930;2023-07-16T14:20:24;24.10;53.90
10336;DHT22;5213;53.548;9.930;2023-07-16T14:22:50;24.10;50.10
10336;DHT22;5213;53.548;9.930;2023-07-16T14:25:16;24.20;50.00
10336;DHT22;5213;53.548;9.930;2023-07-16T14:27:41;24.30;49.10
10336;DHT22;5213;53.548;9.930;2023-07-16T14:30:07;24.30;48.30
10336;DHT22;5213;53.548;9.930;2023-07-16T14:32:34;24.20;46.50
10336;DHT22;5213;53.548;9.930;2023-07-16T14:35:00;24.20;47.70
10336;DHT22;5213;53.548;9.930;2023-07-16T14:37:26;24.40;47.00
10336;DHT22;5213;53.548;9.930;2023-07-16T14:39:51;24.50;46.00
10336;DHT22;5213;53.548;9.930;2023-07-16T14:42:17;24.70;45.10
10336;DHT22;5213;53.548;9.930;2023-07-16T14:44:42;24.70;44.20
10336;DHT22;5213;53.548;9.930;2023-07-16T14:47:08;24.60;44.40
10336;DHT22;5213;53.548;9.930;2023-07-16T14:49:34;24.40;45.50
10336;DHT22;5213;53.548;9.930;2023-07-16T14:52:00;24.30;45.50
10336;DHT22;5213;53.548;9.930;2023-07-16T14:54:26;24.30;45.30
10336;DHT22;5213;53.548;9.930;2023-07-16T14:56:51;24.20;46.00
10336;DHT22;5213;53.548;9.930;2023-07-16T14:59:17;24.50;45.90
10336;DHT22;5213;53.548;9.930;2023-07-16T15:01:43;24.60;43.40
10336;DHT22;5213;53.548;9.930;2023-07-16T15:04:08;24.90;44.00
10336;DHT22;5213;53.548;9.930;2023-07-16T15:06:35;24.90;44.00
10336;DHT22;5213;53.548;9.930;2023-07-16T15:09:01;24.70;45.80
10336;DHT22;5213;53.548;9.930;2023-07-16T15:11:27;24.80;47.60
10336;DHT22;5213;53.548;9.930;2023-07-16T15:13:52;24.40;46.40
10336;DHT22;5213;53.548;9.930;2023-07-16T15:16:18;24.20;49.90
10336;DHT22;5213;53.548;9.930;2023-07-16T15:18:43;23.90;51.10
10336;DHT22;5213;53.548;9.930;2023-07-16T15:21:10;23.80;52.80
10336;DHT22;5213;53.548;9.930;2023-07-16T15:23:36;23.50;49.40
10336;DHT22;5213;53.548;9.930;2023-07-16T15:26:04;23.80;50.30
10336;DHT22;5213;53.548;9.930;2023-07-16T15:28:32;23.70;50.80
10336;DHT22;5213;53.548;9.930;2023-07-16T15:31:00;23.90;65.30
10336;DHT22;5213;53.548;9.930;2023-07-16T15:33:26;24.00;53.00
10336;DHT22;5213;53.548;9.930;2023-07-16T15:35:51;23.90;53.30
10336;DHT22;5213;53.548;9.930;2023-07-16T15:38:17;23.90;53.70
10336;DHT22;5213;53.548;9.930;2023-07-16T15:40:43;24.20;52.40
10336;DHT22;5213;53.548;9.930;2023-07-16T15:43:08;24.20;52.80
10336;DHT22;5213;53.548;9.930;2023-07-16T15:45:34;24.10;54.30
10336;DHT22;5213;53.548;9.930;2023-07-16T15:48:00;24.10;54.40
10336;DHT22;5213;53.548;9.930;2023-07-16T15:50:27;24.30;55.10
10336;DHT22;5213;53.548;9.930;2023-07-16T15:52:54;24.40;51.40
10336;DHT22;5213;53.548;9.930;2023-07-16T15:55:21;24.00;60.50